sensor_id;sensor_type;location;lat;lon;timestamp;pressure;altitude;pressure_sealevel;temperature;humidity
61571;BME280;47463;49.884;10.010;2023-04-19T00:00:02;102740.00000000001;;;6.8;86
61571;BME280;47463;49.884;10.010;2023-04-19T00:05:01;102730;;;6.7;86
61571;BME280;47463;49.884;10.010;2023-04-19T00:10:01;102720;;;6.7;87
61571;BME280;47463;49.884;10.010;2023-04-19T00:15:01;102720;;;6.7;87
61571;BME280;47463;49.884;10.010;2023-04-19T00:20:01;102709.99999999999;;;6.8;87
61571;BME280;47463;49.884;10.010;2023-04-19T00:25:01;102709.99999999999;;;6.9;87
61571;BME280;47463;49.884;10.010;2023-04-19T00:30:01;102709.99999999999;;;7;87
61571;BME280;47463;49.884;10.010;2023-04-19T00:35:01;102709.99999999999;;;7.1;87
61571;BME280;47463;49.884;10.010;2023-04-19T00:40:01;102709.99999999999;;;7.2;86
61571;BME280;47463;49.884;10.010;2023-04-19T00:45:01;102709.99999999999;;;7.3;86
61571;BME280;47463;49.884;10.010;2023-04-19T00:50:01;102700;;;7.3;86
61571;BME280;47463;49.884;10.010;2023-04-19T00:55:01;102700;;;7.2;86
61571;BME280;47463;49.884;10.010;2023-04-19T01:00:01;102700;;;7.3;86
61571;BME280;47463;49.884;10.010;2023-04-19T01:05:01;102700;;;7.3;86
61571;BME280;47463;49.884;10.010;2023-04-19T01:10:01;102690.00000000001;;;7.3;86
61571;BME280;47463;49.884;10.010;2023-04-19T01:15:01;102690.00000000001;;;7.3;86
61571;BME280;47463;49.884;10.010;2023-04-19T01:20:01;102680;;;7.4;86
61571;BME280;47463;49.884;10.010;2023-04-19T01:25:01;102670;;;7.3;86
61571;BME280;47463;49.884;10.010;2023-04-19T01:30:01;102680;;;7.3;86
61571;BME280;47463;49.884;10.010;2023-04-19T01:35:01;102670;;;7.4;86
61571;BME280;47463;49.884;10.010;2023-04-19T01:40:01;102659.99999999999;;;7.5;86
61571;BME280;47463;49.884;10.010;2023-04-19T01:45:01;102659.99999999999;;;7.4;86
61571;BME280;47463;49.884;10.010;2023-04-19T01:50:01;102659.99999999999;;;7.3;86
61571;BME280;47463;49.884;10.010;2023-04-19T01:55:01;102650;;;7.3;86
61571;BME280;47463;49.884;10.010;2023-04-19T02:00:01;102640.00000000001;;;7.4;86
61571;BME280;47463;49.884;10.010;2023-04-19T02:05:01;102650;;;7.5;86
61571;BME280;47463;49.884;10.010;2023-04-19T02:10:01;102640.00000000001;;;7.6;86
61571;BME280;47463;49.884;10.010;2023-04-19T02:15:01;102640.00000000001;;;7.6;86
61571;BME280;47463;49.884;10.010;2023-04-19T02:20:01;102630;;;7.6;86
61571;BME280;47463;49.884;10.010;2023-04-19T02:25:01;102630;;;7.7;86
61571;BME280;47463;49.884;10.010;2023-04-19T02:30:01;102620;;;7.7;86
61571;BME280;47463;49.884;10.010;2023-04-19T02:35:01;102620;;;7.7;86
61571;BME280;47463;49.884;10.010;2023-04-19T02:40:01;102620;;;7.7;86
61571;BME280;47463;49.884;10.010;2023-04-19T02:45:01;102620;;;7.8;86
61571;BME280;47463;49.884;10.010;2023-04-19T02:50:01;102620;;;7.8;86
61571;BME280;47463;49.884;10.010;2023-04-19T02:55:01;102609.99999999999;;;7.9;86
61571;BME280;47463;49.884;10.010;2023-04-19T03:00:01;102609.99999999999;;;7.9;85
61571;BME280;47463;49.884;10.010;2023-04-19T03:05:01;102609.99999999999;;;8;85
61571;BME280;47463;49.884;10.010;2023-04-19T03:10:01;102600;;;8;85
61571;BME280;47463;49.884;10.010;2023-04-19T03:15:01;102600;;;7.9;86
61571;BME280;47463;49.884;10.010;2023-04-19T03:20:01;102590.00000000001;;;7.9;86
61571;BME280;47463;49.884;10.010;2023-04-19T03:25:01;102590.00000000001;;;7.8;87
61571;BME280;47463;49.884;10.010;2023-04-19T03:30:01;102590.00000000001;;;7.7;88
61571;BME280;47463;49.884;10.010;2023-04-19T03:35:01;102580;;;7.6;89
61571;BME280;47463;49.884;10.010;2023-04-19T03:40:01;102580;;;7.5;90
61571;BME280;47463;49.884;10.010;2023-04-19T03:45:01;102559.99999999999;;;7.5;90
61571;BME280;47463;49.884;10.010;2023-04-19T03:50:01;102570;;;7.5;90
61571;BME280;47463;49.884;10.010;2023-04-19T03:55:01;102559.99999999999;;;7.5;90
61571;BME280;47463;49.884;10.010;2023-04-19T04:00:01;102550;;;7.6;90
61571;BME280;47463;49.884;10.010;2023-04-19T04:05:01;102559.99999999999;;;7.6;90
61571;BME280;47463;49.884;10.010;2023-04-19T04:10:01;102559.99999999999;;;7.8;89
61571;BME280;47463;49.884;10.010;2023-04-19T04:15:01;102550;;;7.8;88
61571;BME280;47463;49.884;10.010;2023-04-19T04:20:01;102550;;;7.9;88
61571;BME280;47463;49.884;10.010;2023-04-19T04:25:01;102540.00000000001;;;7.9;88
61571;BME280;47463;49.884;10.010;2023-04-19T04:30:01;102550;;;8;88
61571;BME280;47463;49.884;10.010;2023-04-19T04:35:01;102540.00000000001;;;8;87
61571;BME280;47463;49.884;10.010;2023-04-19T04:40:01;102550;;;8;88
61571;BME280;47463;49.884;10.010;2023-04-19T04:45:01;102540.00000000001;;;8.1;87
61571;BME280;47463;49.884;10.010;2023-04-19T04:50:01;102550;;;8.1;87
61571;BME280;47463;49.884;10.010;2023-04-19T04:55:01;102550;;;8.1;87
61571;BME280;47463;49.884;10.010;2023-04-19T05:00:01;102550;;;8.1;87
61571;BME280;47463;49.884;10.010;2023-04-19T05:05:01;102540.00000000001;;;8.1;87
61571;BME280;47463;49.884;10.010;2023-04-19T05:10:01;102550;;;8.2;87
61571;BME280;47463;49.884;10.010;2023-04-19T05:15:01;102550;;;8.2;87
61571;BME280;47463;49.884;10.010;2023-04-19T05:20:01;102550;;;8.1;87
61571;BME280;47463;49.884;10.010;2023-04-19T05:25:01;102540.00000000001;;;8.1;88
61571;BME280;47463;49.884;10.010;2023-04-19T05:30:01;102540.00000000001;;;8.2;87
61571;BME280;47463;49.884;10.010;2023-04-19T05:35:01;102540.00000000001;;;8.2;87
61571;BME280;47463;49.884;10.010;2023-04-19T05:40:01;102530;;;8.2;87
61571;BME280;47463;49.884;10.010;2023-04-19T05:45:01;102530;;;8.2;87
61571;BME280;47463;49.884;10.010;2023-04-19T05:50:01;102540.00000000001;;;8.2;86
61571;BME280;47463;49.884;10.010;2023-04-19T05:55:01;102530;;;8.2;86
61571;BME280;47463;49.884;10.010;2023-04-19T06:00:01;102540.00000000001;;;8.2;86
61571;BME280;47463;49.884;10.010;2023-04-19T06:05:01;102540.00000000001;;;8.2;86
61571;BME280;47463;49.884;10.010;2023-04-19T06:10:01;102540.00000000001;;;8.3;86
61571;BME280;47463;49.884;10.010;2023-04-19T06:15:01;102530;;;8.3;85
61571;BME280;47463;49.884;10.010;2023-04-19T06:20:01;102530;;;8.2;83
61571;BME280;47463;49.884;10.010;2023-04-19T06:25:01;102540.00000000001;;;8.1;83
61571;BME280;47463;49.884;10.010;2023-04-19T06:30:01;102540.00000000001;;;8;83
61571;BME280;47463;49.884;10.010;2023-04-19T06:35:01;102540.00000000001;;;8;82
61571;BME280;47463;49.884;10.010;2023-04-19T06:40:01;102530;;;7.9;81
61571;BME280;47463;49.884;10.010;2023-04-19T06:45:01;102530;;;7.9;81
61571;BME280;47463;49.884;10.010;2023-04-19T06:50:01;102530;;;7.9;81
61571;BME280;47463;49.884;10.010;2023-04-19T06:55:01;102530;;;7.9;80
61571;BME280;47463;49.884;10.010;2023-04-19T07:00:01;102520;;;7.9;80
61571;BME280;47463;49.884;10.010;2023-04-19T07:05:01;102520;;;7.8;79
61571;BME280;47463;49.884;10.010;2023-04-19T07:10:01;102520;;;7.8;79
61571;BME280;47463;49.884;10.010;2023-04-19T07:15:01;102520;;;7.8;79
61571;BME280;47463;49.884;10.010;2023-04-19T07:20:01;102530;;;7.7;78
61571;BME280;47463;49.884;10.010;2023-04-19T07:25:01;102520;;;7.7;78
61571;BME280;47463;49.884;10.010;2023-04-19T07:30:01;102520;;;7.7;78
61571;BME280;47463;49.884;10.010;2023-04-19T07:35:01;102520;;;7.7;78
61571;BME280;47463;49.884;10.010;2023-04-19T07:40:01;102509.99999999999;;;7.7;78
61571;BME280;47463;49.884;10.010;2023-04-19T07:45:01;102509.99999999999;;;7.7;78
61571;BME280;47463;49.884;10.010;2023-04-19T07:50:01;102500;;;7.8;78
61571;BME280;47463;49.884;10.010;2023-04-19T07:55:01;102490.00000000001;;;7.9;78
61571;BME280;47463;49.884;10.010;2023-04-19T08:00:01;102490.00000000001;;;8;77
61571;BME280;47463;49.884;10.010;2023-04-19T08:05:01;102490.00000000001;;;8.3;77
61571;BME280;47463;49.884;10.010;2023-04-19T08:10:01;102500;;;8.8;76
61571;BME280;47463;49.884;10.010;2023-04-19T08:15:01;102500;;;8.8;75
61571;BME280;47463;49.884;10.010;2023-04-19T08:20:01;102490.00000000001;;;9.3;75
61571;BME280;47463;49.884;10.010;2023-04-19T08:25:01;102500;;;8.9;74
61571;BME280;47463;49.884;10.010;2023-04-19T08:30:01;102500;;;9;75
61571;BME280;47463;49.884;10.010;2023-04-19T08:35:01;102490.00000000001;;;9.2;75
61571;BME280;47463;49.884;10.010;2023-04-19T08:40:01;102480;;;9.3;74
61571;BME280;47463;49.884;10.010;2023-04-19T08:45:01;102490.00000000001;;;9.4;73
61571;BME280;47463;49.884;10.010;2023-04-19T08:50:02;102490.00000000001;;;9.4;73
61571;BME280;47463;49.884;10.010;2023-04-19T08:55:01;102480;;;9.3;72
61571;BME280;47463;49.884;10.010;2023-04-19T09:00:01;102480;;;9.5;72
61571;BME280;47463;49.884;10.010;2023-04-19T09:05:01;102470;;;9.5;71
61571;BME280;47463;49.884;10.010;2023-04-19T09:10:03;102480;;;9.6;71
61571;BME280;47463;49.884;10.010;2023-04-19T09:15:01;102480;;;9.2;70
61571;BME280;47463;49.884;10.010;2023-04-19T09:20:01;102480;;;9.4;70
61571;BME280;47463;49.884;10.010;2023-04-19T09:25:01;102470;;;9.3;70
61571;BME280;47463;49.884;10.010;2023-04-19T09:30:01;102480;;;9.3;69
61571;BME280;47463;49.884;10.010;2023-04-19T09:35:01;102470;;;9.5;70
61571;BME280;47463;49.884;10.010;2023-04-19T09:40:04;102470;;;9.5;69
61571;BME280;47463;49.884;10.010;2023-04-19T09:45:01;102470;;;9.6;69
61571;BME280;47463;49.884;10.010;2023-04-19T09:50:04;102450;;;9.5;69
61571;BME280;47463;49.884;10.010;2023-04-19T09:55:01;102459.99999999999;;;9.4;68
61571;BME280;47463;49.884;10.010;2023-04-19T10:00:01;102459.99999999999;;;9.7;69
61571;BME280;47463;49.884;10.010;2023-04-19T10:05:01;102440.00000000001;;;9.8;69
61571;BME280;47463;49.884;10.010;2023-04-19T10:10:01;102440.00000000001;;;9.9;69
61571;BME280;47463;49.884;10.010;2023-04-19T10:15:01;102440.00000000001;;;10.2;67
61571;BME280;47463;49.884;10.010;2023-04-19T10:20:02;102430;;;10.3;65
61571;BME280;47463;49.884;10.010;2023-04-19T10:25:06;102420;;;9.8;64
61571;BME280;47463;49.884;10.010;2023-04-19T10:30:01;102420;;;9.8;65
61571;BME280;47463;49.884;10.010;2023-04-19T10:35:01;102420;;;10;64
61571;BME280;47463;49.884;10.010;2023-04-19T10:40:01;102420;;;10.6;62
61571;BME280;47463;49.884;10.010;2023-04-19T10:45:32;102409.99999999999;;;9.5;61
61571;BME280;47463;49.884;10.010;2023-04-19T10:50:02;102409.99999999999;;;9.7;61
61571;BME280;47463;49.884;10.010;2023-04-19T10:55:02;102400;;;10.2;60
61571;BME280;47463;49.884;10.010;2023-04-19T11:00:17;102390;;;10.4;59
61571;BME280;47463;49.884;10.010;2023-04-19T11:05:01;102380;;;10.2;59
61571;BME280;47463;49.884;10.010;2023-04-19T11:10:01;102370;;;10.4;56
61571;BME280;47463;49.884;10.010;2023-04-19T11:15:01;102360;;;10.5;55
61571;BME280;47463;49.884;10.010;2023-04-19T11:20:01;102350;;;11;55
61571;BME280;47463;49.884;10.010;2023-04-19T11:25:08;102340;;;10.6;54
61571;BME280;47463;49.884;10.010;2023-04-19T11:30:01;102330;;;11.4;55
61571;BME280;47463;49.884;10.010;2023-04-19T11:35:05;102320;;;11.3;53
61571;BME280;47463;49.884;10.010;2023-04-19T11:40:01;102300;;;11.8;51
61571;BME280;47463;49.884;10.010;2023-04-19T11:45:01;102290;;;12;50
61571;BME280;47463;49.884;10.010;2023-04-19T11:50:29;102290;;;12.1;48
61571;BME280;47463;49.884;10.010;2023-04-19T11:55:16;102280;;;11.8;47
61571;BME280;47463;49.884;10.010;2023-04-19T12:00:02;102270;;;11.5;46
61571;BME280;47463;49.884;10.010;2023-04-19T12:05:05;102270;;;11.7;48
61571;BME280;47463;49.884;10.010;2023-04-19T12:10:06;102280;;;12.2;48
61571;BME280;47463;49.884;10.010;2023-04-19T12:15:01;102280;;;11.7;46
61571;BME280;47463;49.884;10.010;2023-04-19T12:20:01;102270;;;12;46
61571;BME280;47463;49.884;10.010;2023-04-19T12:25:01;102270;;;11.6;43
61571;BME280;47463;49.884;10.010;2023-04-19T12:30:01;102270;;;11.8;44
61571;BME280;47463;49.884;10.010;2023-04-19T12:35:01;102260;;;12.1;43
61571;BME280;47463;49.884;10.010;2023-04-19T12:40:01;102250;;;12.4;42
61571;BME280;47463;49.884;10.010;2023-04-19T12:45:01;102240;;;12.1;40
61571;BME280;47463;49.884;10.010;2023-04-19T12:50:01;102240;;;11.9;39
61571;BME280;47463;49.884;10.010;2023-04-19T12:55:01;102250;;;11.9;38
61571;BME280;47463;49.884;10.010;2023-04-19T13:00:01;102240;;;12;39
61571;BME280;47463;49.884;10.010;2023-04-19T13:05:01;102240;;;12;39
61571;BME280;47463;49.884;10.010;2023-04-19T13:10:01;102240;;;11.9;38
61571;BME280;47463;49.884;10.010;2023-04-19T13:15:01;102250;;;12.2;39
61571;BME280;47463;49.884;10.010;2023-04-19T13:20:01;102260;;;12.3;39
61571;BME280;47463;49.884;10.010;2023-04-19T13:25:01;102260;;;12.2;39
61571;BME280;47463;49.884;10.010;2023-04-19T13:30:01;102250;;;12.1;39
61571;BME280;47463;49.884;10.010;2023-04-19T13:35:01;102250;;;12;38
61571;BME280;47463;49.884;10.010;2023-04-19T13:40:01;102230;;;12.3;38
61571;BME280;47463;49.884;10.010;2023-04-19T13:45:01;102230;;;12.1;39
61571;BME280;47463;49.884;10.010;2023-04-19T13:50:01;102230;;;12.3;40
61571;BME280;47463;49.884;10.010;2023-04-19T13:55:01;102220;;;11.9;38
61571;BME280;47463;49.884;10.010;2023-04-19T14:00:01;102210;;;12;39
61571;BME280;47463;49.884;10.010;2023-04-19T14:05:01;102220;;;12.2;40
61571;BME280;47463;49.884;10.010;2023-04-19T14:10:01;102220;;;11.9;39
61571;BME280;47463;49.884;10.010;2023-04-19T14:15:01;102220;;;12.2;41
61571;BME280;47463;49.884;10.010;2023-04-19T14:20:01;102200;;;11.9;39
61571;BME280;47463;49.884;10.010;2023-04-19T14:25:01;102200;;;12.3;41
61571;BME280;47463;49.884;10.010;2023-04-19T14:30:01;102200;;;11.9;41
61571;BME280;47463;49.884;10.010;2023-04-19T14:35:01;102210;;;12;41
61571;BME280;47463;49.884;10.010;2023-04-19T14:40:01;102200;;;12;39
61571;BME280;47463;49.884;10.010;2023-04-19T14:45:01;102200;;;11.7;39
61571;BME280;47463;49.884;10.010;2023-04-19T14:50:01;102200;;;11.3;39
61571;BME280;47463;49.884;10.010;2023-04-19T14:55:01;102200;;;11.4;41
61571;BME280;47463;49.884;10.010;2023-04-19T15:00:01;102200;;;11.1;42
61571;BME280;47463;49.884;10.010;2023-04-19T15:05:01;102200;;;11.1;42
61571;BME280;47463;49.884;10.010;2023-04-19T15:10:01;102200;;;11.1;43
61571;BME280;47463;49.884;10.010;2023-04-19T15:15:01;102200;;;10.7;43
61571;BME280;47463;49.884;10.010;2023-04-19T15:20:01;102200;;;11;43
61571;BME280;47463;49.884;10.010;2023-04-19T15:25:01;102210;;;11.1;44
61571;BME280;47463;49.884;10.010;2023-04-19T15:30:01;102200;;;11.2;44
61571;BME280;47463;49.884;10.010;2023-04-19T15:35:01;102210;;;10.7;44
61571;BME280;47463;49.884;10.010;2023-04-19T15:40:01;102210;;;10.9;44
61571;BME280;47463;49.884;10.010;2023-04-19T15:45:01;102210;;;10.5;43
61571;BME280;47463;49.884;10.010;2023-04-19T15:50:01;102210;;;10.8;43
61571;BME280;47463;49.884;10.010;2023-04-19T15:55:01;102220;;;10.6;43
61571;BME280;47463;49.884;10.010;2023-04-19T16:00:01;102220;;;10.7;44
61571;BME280;47463;49.884;10.010;2023-04-19T16:05:01;102210;;;10.7;44
61571;BME280;47463;49.884;10.010;2023-04-19T16:10:01;102200;;;10.4;42
61571;BME280;47463;49.884;10.010;2023-04-19T16:15:01;102200;;;10.5;41
61571;BME280;47463;49.884;10.010;2023-04-19T16:20:01;102210;;;10.5;41
61571;BME280;47463;49.884;10.010;2023-04-19T16:25:01;102210;;;10.4;41
61571;BME280;47463;49.884;10.010;2023-04-19T16:30:01;102210;;;10.5;41
61571;BME280;47463;49.884;10.010;2023-04-19T16:35:01;102210;;;10.5;41
61571;BME280;47463;49.884;10.010;2023-04-19T16:40:01;102200;;;10.6;42
61571;BME280;47463;49.884;10.010;2023-04-19T16:45:01;102210;;;10.4;43
61571;BME280;47463;49.884;10.010;2023-04-19T16:50:01;102190;;;10.4;42
61571;BME280;47463;49.884;10.010;2023-04-19T16:55:01;102190;;;10.5;44
61571;BME280;47463;49.884;10.010;2023-04-19T17:00:01;102190;;;10.6;44
61571;BME280;47463;49.884;10.010;2023-04-19T17:05:01;102190;;;10.4;43
61571;BME280;47463;49.884;10.010;2023-04-19T17:10:01;102180;;;10.3;43
61571;BME280;47463;49.884;10.010;2023-04-19T17:15:01;102190;;;10.2;44
61571;BME280;47463;49.884;10.010;2023-04-19T17:20:01;102190;;;10.2;45
61571;BME280;47463;49.884;10.010;2023-04-19T17:25:01;102170;;;10;46
61571;BME280;47463;49.884;10.010;2023-04-19T17:30:01;102170;;;9.9;46
61571;BME280;47463;49.884;10.010;2023-04-19T17:35:01;102180;;;9.8;47
61571;BME280;47463;49.884;10.010;2023-04-19T17:40:01;102180;;;9.7;48
61571;BME280;47463;49.884;10.010;2023-04-19T17:45:01;102180;;;9.4;50
61571;BME280;47463;49.884;10.010;2023-04-19T17:50:04;102190;;;9.3;50
61571;BME280;47463;49.884;10.010;2023-04-19T17:55:01;102180;;;9;51
61571;BME280;47463;49.884;10.010;2023-04-19T18:00:01;102180;;;8.8;52
61571;BME280;47463;49.884;10.010;2023-04-19T18:05:01;102180;;;8.7;52
61571;BME280;47463;49.884;10.010;2023-04-19T18:10:01;102180;;;8.6;51
61571;BME280;47463;49.884;10.010;2023-04-19T18:15:01;102190;;;8.2;52
61571;BME280;47463;49.884;10.010;2023-04-19T18:20:01;102190;;;8.1;53
61571;BME280;47463;49.884;10.010;2023-04-19T18:25:01;102190;;;7.8;54
61571;BME280;47463;49.884;10.010;2023-04-19T18:30:01;102190;;;7.7;55
61571;BME280;47463;49.884;10.010;2023-04-19T18:35:01;102200;;;7.3;57
61571;BME280;47463;49.884;10.010;2023-04-19T18:40:01;102200;;;7.1;58
61571;BME280;47463;49.884;10.010;2023-04-19T18:45:01;102200;;;6.9;59
61571;BME280;47463;49.884;10.010;2023-04-19T18:50:01;102210;;;6.6;60
61571;BME280;47463;49.884;10.010;2023-04-19T18:55:01;102210;;;6.3;62
61571;BME280;47463;49.884;10.010;2023-04-19T19:00:01;102200;;;6.3;62
61571;BME280;47463;49.884;10.010;2023-04-19T19:05:01;102210;;;6.3;62
61571;BME280;47463;49.884;10.010;2023-04-19T19:10:01;102210;;;6.3;62
61571;BME280;47463;49.884;10.010;2023-04-19T19:15:01;102210;;;6.3;62
61571;BME280;47463;49.884;10.010;2023-04-19T19:20:01;102200;;;6.2;62
61571;BME280;47463;49.884;10.010;2023-04-19T19:25:01;102210;;;6.2;62
61571;BME280;47463;49.884;10.010;2023-04-19T19:30:01;102210;;;6.2;62
61571;BME280;47463;49.884;10.010;2023-04-19T19:35:01;102210;;;6.2;62
61571;BME280;47463;49.884;10.010;2023-04-19T19:40:01;102210;;;6.2;62
61571;BME280;47463;49.884;10.010;2023-04-19T19:45:01;102200;;;6.2;62
61571;BME280;47463;49.884;10.010;2023-04-19T19:50:01;102200;;;6.1;62
61571;BME280;47463;49.884;10.010;2023-04-19T19:55:01;102200;;;6.3;60
61571;BME280;47463;49.884;10.010;2023-04-19T20:00:01;102200;;;6.4;60
61571;BME280;47463;49.884;10.010;2023-04-19T20:05:01;102200;;;6.5;59
61571;BME280;47463;49.884;10.010;2023-04-19T20:10:01;102210;;;6.5;59
61571;BME280;47463;49.884;10.010;2023-04-19T20:15:01;102200;;;6.4;59
61571;BME280;47463;49.884;10.010;2023-04-19T20:20:01;102200;;;6.4;59
61571;BME280;47463;49.884;10.010;2023-04-19T20:25:01;102200;;;6.4;59
61571;BME280;47463;49.884;10.010;2023-04-19T20:30:01;102200;;;6.2;60
61571;BME280;47463;49.884;10.010;2023-04-19T20:35:01;102200;;;6.2;60
61571;BME280;47463;49.884;10.010;2023-04-19T20:40:01;102200;;;6.1;60
61571;BME280;47463;49.884;10.010;2023-04-19T20:45:01;102200;;;6;61
61571;BME280;47463;49.884;10.010;2023-04-19T20:50:01;102200;;;5.9;61
61571;BME280;47463;49.884;10.010;2023-04-19T20:55:01;102190;;;5.9;61
61571;BME280;47463;49.884;10.010;2023-04-19T21:00:01;102190;;;5.9;61
61571;BME280;47463;49.884;10.010;2023-04-19T21:05:01;102180;;;5.9;61
61571;BME280;47463;49.884;10.010;2023-04-19T21:10:01;102180;;;5.8;62
61571;BME280;47463;49.884;10.010;2023-04-19T21:15:01;102180;;;5.7;63
61571;BME280;47463;49.884;10.010;2023-04-19T21:20:01;102180;;;5.7;63
61571;BME280;47463;49.884;10.010;2023-04-19T21:25:01;102170;;;5.6;63
61571;BME280;47463;49.884;10.010;2023-04-19T21:30:01;102170;;;5.2;64
61571;BME280;47463;49.884;10.010;2023-04-19T21:35:01;102160;;;5.2;65
61571;BME280;47463;49.884;10.010;2023-04-19T21:40:01;102150;;;5.3;65
61571;BME280;47463;49.884;10.010;2023-04-19T21:45:01;102150;;;5;66
61571;BME280;47463;49.884;10.010;2023-04-19T21:50:01;102150;;;4.9;66
61571;BME280;47463;49.884;10.010;2023-04-19T21:55:01;102160;;;4.1;69
61571;BME280;47463;49.884;10.010;2023-04-19T22:00:01;102160;;;4;70
61571;BME280;47463;49.884;10.010;2023-04-19T22:05:01;102150;;;3.9;70
61571;BME280;47463;49.884;10.010;2023-04-19T22:10:01;102150;;;3.7;71
61571;BME280;47463;49.884;10.010;2023-04-19T22:15:01;102140;;;3.7;71
61571;BME280;47463;49.884;10.010;2023-04-19T22:20:01;102140;;;3.6;72
61571;BME280;47463;49.884;10.010;2023-04-19T22:25:01;102140;;;3.7;72
61571;BME280;47463;49.884;10.010;2023-04-19T22:30:01;102140;;;3.7;72
61571;BME280;47463;49.884;10.010;2023-04-19T22:35:01;102130;;;3.7;72
61571;BME280;47463;49.884;10.010;2023-04-19T22:40:01;102140;;;3.9;73
61571;BME280;47463;49.884;10.010;2023-04-19T22:45:01;102140;;;4;73
61571;BME280;47463;49.884;10.010;2023-04-19T22:50:01;102120;;;4.2;73
61571;BME280;47463;49.884;10.010;2023-04-19T22:55:01;102110;;;4.5;72
61571;BME280;47463;49.884;10.010;2023-04-19T23:00:01;102100;;;5.3;68
61571;BME280;47463;49.884;10.010;2023-04-19T23:05:01;102110;;;5.4;67
61571;BME280;47463;49.884;10.010;2023-04-19T23:10:01;102090;;;5.5;67
61571;BME280;47463;49.884;10.010;2023-04-19T23:15:01;102090;;;5.4;66
61571;BME280;47463;49.884;10.010;2023-04-19T23:20:01;102090;;;5.3;67
61571;BME280;47463;49.884;10.010;2023-04-19T23:25:01;102090;;;5.1;67
61571;BME280;47463;49.884;10.010;2023-04-19T23:30:01;102090;;;4.7;68
61571;BME280;47463;49.884;10.010;2023-04-19T23:35:01;102090;;;4.4;70
61571;BME280;47463;49.884;10.010;2023-04-19T23:40:01;102080;;;4.3;71
61571;BME280;47463;49.884;10.010;2023-04-19T23:45:01;102080;;;4.2;71
61571;BME280;47463;49.884;10.010;2023-04-19T23:50:01;102080;;;4.1;72
61571;BME280;47463;49.884;10.010;2023-04-19T23:55:01;102080;;;4;73
